createdAt,value
2019-01-10T00:00:36.111Z,6.85
2019-01-10T00:03:17.506Z,6.33
2019-01-10T00:05:58.191Z,3.22
2019-01-10T00:08:39.225Z,9.48
2019-01-10T00:11:20.513Z,4.85
2019-01-10T00:14:01.458Z,11.00
2019-01-10T00:16:41.295Z,6.08
2019-01-10T00:19:21.298Z,7.15
2019-01-10T00:22:01.454Z,7.03
2019-01-10T00:24:42.003Z,5.53
2019-01-10T00:27:10.030Z,9.30
2019-01-10T00:29:56.883Z,5.22
2019-01-10T00:32:25.982Z,6.28
2019-01-10T00:35:14.538Z,6.45
2019-01-10T00:37:55.830Z,6.20
2019-01-10T00:40:37.070Z,6.60
2019-01-10T00:43:20.922Z,4.87
2019-01-10T00:46:01.274Z,5.85
2019-01-10T00:48:41.672Z,6.62
2019-01-10T00:51:21.631Z,4.03
2019-01-10T00:54:01.816Z,6.83
2019-01-10T00:56:41.506Z,6.90
2019-01-10T00:59:21.556Z,9.15
2019-01-10T01:02:02.627Z,5.83
2019-01-10T01:04:43.876Z,5.90
2019-01-10T01:07:24.719Z,11.30
2019-01-10T01:10:05.960Z,8.25
2019-01-10T01:12:47.046Z,5.20
2019-01-10T01:15:28.121Z,5.78
2019-01-10T01:17:55.493Z,5.22
2019-01-10T01:20:37.435Z,7.83
2019-01-10T01:23:17.367Z,6.75
2019-01-10T01:25:57.215Z,6.55
2019-01-10T01:28:37.375Z,9.43
2019-01-10T01:31:17.709Z,10.60
2019-01-10T01:34:01.467Z,6.08
2019-01-10T01:36:42.462Z,6.22
2019-01-10T01:39:23.672Z,5.10
2019-01-10T01:42:04.827Z,3.80
2019-01-10T01:44:45.723Z,6.08
2019-01-10T01:47:26.852Z,5.40
2019-01-10T01:50:08.026Z,4.55
2019-01-10T01:52:49.759Z,7.25
2019-01-10T01:55:30.012Z,6.80
2019-01-10T01:58:09.991Z,6.87
2019-01-10T02:00:50.045Z,7.47
2019-01-10T02:03:29.955Z,6.95
2019-01-10T02:06:09.860Z,4.60
2019-01-10T02:08:50.843Z,10.35
2019-01-10T02:11:32.103Z,8.55
2019-01-10T02:14:13.259Z,10.40
2019-01-10T02:16:53.977Z,5.67
2019-01-10T02:19:36.919Z,4.85
2019-01-10T02:22:17.831Z,4.42
2019-01-10T02:24:58.435Z,5.22
2019-01-10T02:27:38.834Z,9.78
2019-01-10T02:30:09.196Z,5.95
2019-01-10T02:32:56.495Z,8.35
2019-01-10T02:35:36.592Z,4.37
2019-01-10T02:38:17.242Z,5.05
2019-01-10T02:40:58.387Z,8.38
2019-01-10T02:43:39.051Z,6.35
2019-01-10T02:46:20.597Z,6.67
2019-01-10T02:49:01.019Z,5.05
2019-01-10T02:51:42.998Z,6.72
2019-01-10T02:54:25.641Z,3.90
2019-01-10T02:57:06.447Z,8.25
2019-01-10T02:59:46.323Z,4.83
2019-01-10T03:02:26.103Z,6.00
2019-01-10T03:05:06.387Z,7.67
2019-01-10T03:07:46.131Z,9.25
2019-01-10T03:10:26.639Z,4.53
2019-01-10T03:13:08.220Z,7.33
2019-01-10T03:15:49.412Z,4.30
2019-01-10T03:18:30.488Z,5.83
2019-01-10T03:21:11.366Z,6.60
2019-01-10T03:23:52.764Z,6.37
2019-01-10T03:26:33.606Z,6.55
2019-01-10T03:29:15.368Z,8.30
2019-01-10T03:31:55.276Z,6.83
2019-01-10T03:34:35.711Z,9.33
2019-01-10T03:37:15.806Z,5.90
2019-01-10T03:39:55.734Z,6.03
2019-01-10T03:45:25.176Z,4.60
2019-01-10T03:48:06.951Z,10.70
2019-01-10T03:50:47.810Z,6.17
2019-01-10T03:53:28.692Z,8.60
2019-01-10T03:56:09.706Z,5.45
2019-01-10T03:58:50.337Z,6.75
2019-01-10T04:01:30.725Z,6.72
2019-01-10T04:04:11.932Z,6.70
2019-01-10T04:06:51.691Z,6.35
2019-01-10T04:09:31.549Z,4.75
2019-01-10T04:12:11.382Z,8.03
2019-01-10T04:14:52.433Z,3.60
2019-01-10T04:17:33.774Z,5.75
2019-01-10T04:20:14.992Z,10.43
2019-01-10T04:22:56.231Z,7.72
2019-01-10T04:25:37.308Z,6.05
2019-01-10T04:28:18.021Z,7.95
2019-01-10T04:30:57.925Z,7.65
2019-01-10T04:33:42.064Z,5.20
2019-01-10T04:36:21.650Z,6.50
2019-01-10T04:39:02.176Z,7.83
2019-01-10T04:41:42.088Z,5.10
2019-01-10T04:44:22.940Z,4.33
2019-01-10T04:47:04.239Z,4.15
2019-01-10T04:49:45.162Z,10.65
2019-01-10T04:52:26.611Z,5.17
2019-01-10T04:55:08.390Z,10.65
2019-01-10T04:57:49.741Z,7.70
2019-01-10T05:00:30.654Z,10.88
2019-01-10T05:03:10.484Z,9.50
2019-01-10T05:05:50.667Z,3.42
2019-01-10T05:08:31.022Z,4.95
2019-01-10T05:11:11.403Z,6.50
2019-01-10T05:13:52.071Z,7.37
2019-01-10T05:16:31.837Z,7.10
2019-01-10T05:19:12.869Z,6.10
2019-01-10T05:21:53.941Z,6.33
2019-01-10T05:24:35.311Z,7.28
2019-01-10T05:27:16.590Z,7.50
2019-01-10T05:29:57.631Z,5.47
2019-01-10T05:32:38.571Z,4.85
2019-01-10T05:35:19.504Z,4.42
2019-01-10T05:37:59.602Z,5.65
2019-01-10T05:40:39.986Z,5.25
2019-01-10T05:43:20.139Z,3.52
2019-01-10T05:46:00.247Z,5.80
2019-01-10T05:48:39.738Z,5.20
2019-01-10T05:51:21.578Z,7.87
2019-01-10T05:54:02.912Z,6.35
2019-01-10T05:56:44.167Z,7.37
2019-01-10T05:59:25.269Z,4.58
2019-01-10T06:02:06.008Z,5.05
2019-01-10T06:04:47.589Z,7.33
2019-01-10T06:07:28.727Z,6.67
2019-01-10T06:10:08.142Z,6.15
2019-01-10T06:12:48.582Z,5.85
2019-01-10T06:15:28.643Z,7.55
2019-01-10T06:18:08.734Z,4.12
2019-01-10T06:20:48.803Z,3.92
2019-01-10T06:23:29.550Z,11.35
2019-01-10T06:26:10.774Z,5.28
2019-01-10T06:28:51.814Z,6.00
2019-01-10T06:31:32.799Z,4.67
2019-01-10T06:34:14.126Z,5.33
2019-01-10T06:36:55.223Z,8.33
2019-01-10T06:39:36.757Z,5.25
2019-01-10T06:42:22.605Z,5.05
2019-01-10T06:45:06.503Z,7.30
2019-01-10T06:47:46.929Z,5.83
2019-01-10T06:50:27.378Z,9.58
2019-01-10T06:53:09.427Z,6.25
2019-01-10T06:55:50.831Z,5.65
2019-01-10T06:58:31.739Z,8.00
2019-01-10T07:01:13.645Z,7.40
2019-01-10T07:03:54.927Z,6.10
2019-01-10T07:06:37.745Z,6.37
2019-01-10T07:09:19.459Z,6.33
2019-01-10T07:12:05.272Z,8.98
2019-01-10T07:14:53.395Z,4.33
2019-01-10T07:17:27.601Z,8.38
2019-01-10T07:20:07.571Z,8.53
2019-01-10T07:22:47.676Z,10.20
2019-01-10T07:25:27.982Z,9.43
2019-01-10T07:28:28.509Z,9.73
2019-01-10T07:31:29.651Z,4.00
2019-01-10T07:34:10.769Z,6.95
2019-01-10T07:36:51.705Z,7.33
2019-01-10T07:39:34.667Z,5.58
2019-01-10T07:42:15.099Z,5.55
2019-01-10T07:45:02.622Z,7.17
2019-01-10T07:47:56.665Z,6.90
2019-01-10T07:50:44.933Z,5.87
2019-01-10T07:53:34.284Z,15.23
2019-01-10T07:56:16.769Z,8.20
2019-01-10T07:58:57.547Z,8.98
2019-01-10T08:01:38.411Z,11.45
2019-01-10T08:04:19.560Z,8.50
2019-01-10T08:07:00.613Z,7.50
2019-01-10T08:09:40.975Z,6.85
2019-01-10T08:12:20.834Z,6.75
2019-01-10T08:15:01.123Z,12.37
2019-01-10T08:17:28.970Z,7.25
2019-01-10T08:20:16.101Z,7.12
2019-01-10T08:22:59.564Z,11.80
2019-01-10T08:25:40.968Z,9.55
2019-01-10T08:28:21.978Z,12.28
2019-01-10T08:30:51.646Z,15.28
2019-01-10T08:33:40.861Z,10.30
2019-01-10T08:36:32.188Z,9.28
2019-01-10T08:39:06.287Z,9.65
2019-01-10T08:41:46.787Z,8.05
2019-01-10T08:44:13.943Z,7.30
2019-01-10T08:47:00.912Z,6.78
2019-01-10T08:49:40.306Z,7.12
2019-01-10T08:52:20.458Z,7.30
2019-01-10T08:55:00.878Z,6.30
2019-01-10T08:57:44.651Z,5.30
2019-01-10T09:00:26.048Z,9.73
2019-01-10T09:03:07.046Z,4.78
2019-01-10T09:05:47.752Z,10.50
2019-01-10T09:08:28.973Z,8.88
2019-01-10T09:11:10.458Z,7.53
2019-01-10T09:13:49.940Z,8.60
2019-01-10T09:16:30.275Z,7.92
2019-01-10T09:19:10.499Z,9.05
2019-01-10T09:21:51.896Z,7.15
2019-01-10T09:24:32.409Z,10.13
2019-01-10T09:27:12.167Z,8.13
2019-01-10T09:29:53.760Z,10.20
2019-01-10T09:32:34.620Z,7.47
2019-01-10T09:35:15.491Z,8.85
2019-01-10T09:37:57.063Z,6.70
2019-01-10T09:40:37.818Z,7.65
2019-01-10T09:43:09.807Z,6.92
2019-01-10T09:45:58.855Z,10.15
2019-01-10T09:48:27.894Z,5.67
2019-01-10T09:51:14.558Z,8.83
2019-01-10T09:53:55.031Z,7.90
2019-01-10T09:56:34.844Z,4.50
2019-01-10T09:59:05.214Z,9.48
2019-01-10T10:01:51.882Z,8.80
2019-01-10T10:04:28.677Z,10.48
2019-01-10T10:07:36.945Z,7.03
2019-01-10T10:10:19.265Z,12.18
2019-01-10T10:13:00.186Z,7.05
2019-01-10T10:15:41.475Z,10.95
2019-01-10T10:18:21.294Z,9.08
2019-01-10T10:21:01.394Z,11.35
2019-01-10T10:23:41.322Z,12.07
2019-01-10T10:26:21.366Z,10.32
2019-01-10T10:29:01.335Z,11.75
2019-01-10T10:31:33.186Z,9.95
2019-01-10T10:34:21.943Z,7.55
2019-01-10T10:36:52.246Z,11.60
2019-01-10T10:39:40.841Z,10.40
2019-01-10T10:42:22.742Z,10.03
2019-01-10T10:45:08.039Z,10.40
2019-01-10T10:47:48.667Z,10.32
2019-01-10T10:53:22.481Z,11.65
2019-01-10T10:56:02.990Z,12.07
2019-01-10T10:58:43.211Z,7.45
2019-01-10T11:01:23.188Z,9.98
2019-01-10T11:04:04.627Z,9.35
2019-01-10T11:06:45.663Z,6.90
2019-01-10T11:09:26.574Z,9.75
2019-01-10T11:12:07.615Z,11.28
2019-01-10T11:14:40.142Z,10.60
2019-01-10T11:17:29.036Z,9.58
2019-01-10T11:20:39.784Z,10.88
2019-01-10T11:23:30.141Z,10.00
2019-01-10T11:28:57.752Z,8.43
2019-01-10T11:31:39.573Z,6.45
2019-01-10T11:34:50.018Z,11.05
2019-01-10T11:37:51.240Z,10.48
2019-01-10T11:40:40.534Z,7.70
2019-01-10T11:43:21.025Z,7.45
2019-01-10T11:46:02.225Z,10.08
2019-01-10T11:48:42.037Z,8.83
2019-01-10T11:51:25.404Z,15.00
2019-01-10T11:54:06.339Z,11.28
2019-01-10T11:56:47.273Z,12.28
2019-01-10T11:59:15.918Z,12.98
2019-01-10T12:02:05.194Z,6.47
2019-01-10T12:04:46.050Z,11.18
2019-01-10T12:07:27.303Z,11.28
2019-01-10T12:10:08.526Z,9.10
2019-01-10T12:12:38.699Z,10.10
2019-01-10T12:15:26.666Z,6.37
2019-01-10T12:17:59.050Z,7.85
2019-01-10T12:20:46.277Z,9.15
2019-01-10T12:23:26.567Z,9.25
2019-01-10T12:26:08.980Z,8.80
2019-01-10T12:28:50.672Z,5.37
2019-01-10T12:31:31.446Z,10.60
2019-01-10T12:34:13.852Z,8.23
2019-01-10T12:37:00.312Z,8.10
2019-01-10T12:39:38.393Z,12.47
2019-01-10T12:42:09.215Z,12.80
2019-01-10T12:44:51.746Z,6.50
2019-01-10T12:47:32.765Z,13.00
2019-01-10T12:50:14.063Z,15.03
2019-01-10T12:52:53.949Z,15.05
2019-01-10T12:55:34.144Z,9.43
2019-01-10T12:58:14.029Z,13.75
2019-01-10T13:00:54.244Z,10.38
2019-01-10T13:03:25.331Z,12.03
2019-01-10T13:06:12.493Z,9.48
2019-01-10T13:08:43.702Z,14.28
2019-01-10T13:11:32.811Z,10.65
2019-01-10T13:14:05.460Z,8.05
2019-01-10T13:17:11.851Z,10.25
2019-01-10T13:19:55.398Z,8.75
2019-01-10T13:22:22.562Z,6.95
2019-01-10T13:25:14.530Z,12.95
2019-01-10T13:27:57.103Z,9.25
2019-01-10T13:30:37.410Z,7.45
2019-01-10T13:33:17.203Z,9.63
2019-01-10T13:35:58.801Z,6.92
2019-01-10T13:38:39.972Z,8.93
2019-01-10T13:41:20.830Z,8.90
2019-01-10T13:44:02.277Z,8.43
2019-01-10T13:46:44.110Z,7.78
2019-01-10T13:49:27.994Z,9.33
2019-01-10T13:51:56.403Z,10.03
2019-01-10T13:54:47.502Z,9.68
2019-01-10T13:57:28.234Z,8.13
2019-01-10T14:00:12.824Z,10.45
2019-01-10T14:02:52.507Z,8.85
2019-01-10T14:05:32.476Z,7.78
2019-01-10T14:08:20.919Z,6.53
2019-01-10T14:11:02.775Z,11.20
2019-01-10T14:13:44.166Z,9.25
2019-01-10T14:16:26.187Z,7.80
2019-01-10T14:19:07.625Z,10.55
2019-01-10T14:21:48.851Z,11.78
2019-01-10T14:24:28.259Z,6.35
2019-01-10T14:27:08.398Z,9.08
2019-01-10T14:29:48.373Z,13.98
2019-01-10T14:32:28.561Z,7.67
2019-01-10T14:35:08.736Z,8.35
2019-01-10T14:37:48.612Z,5.90
2019-01-10T14:40:29.694Z,5.22
2019-01-10T14:43:10.551Z,8.60
2019-01-10T14:45:51.943Z,10.10
2019-01-10T14:48:32.760Z,9.35
2019-01-10T14:51:04.902Z,10.35
2019-01-10T14:53:54.056Z,8.20
2019-01-10T14:56:24.136Z,12.73
2019-01-10T14:59:13.243Z,11.85
2019-01-10T15:01:53.413Z,6.92
2019-01-10T15:04:33.916Z,9.90
2019-01-10T15:07:02.498Z,10.72
2019-01-10T15:09:49.527Z,12.40
2019-01-10T15:12:36.986Z,12.63
2019-01-10T15:15:26.258Z,12.07
2019-01-10T15:18:13.266Z,9.93
2019-01-10T15:20:54.731Z,11.75
2019-01-10T15:23:36.551Z,10.45
2019-01-10T15:26:18.367Z,13.95
2019-01-10T15:28:58.702Z,9.38
2019-01-10T15:31:39.103Z,11.20
2019-01-10T15:34:19.523Z,11.75
2019-01-10T15:37:03.370Z,16.20
2019-01-10T15:39:47.850Z,15.20
2019-01-10T15:42:29.304Z,16.52
2019-01-10T15:45:10.287Z,10.35
2019-01-10T15:47:53.963Z,13.90
2019-01-10T15:50:34.621Z,10.32
2019-01-10T15:53:15.477Z,11.55
2019-01-10T15:55:57.069Z,12.78
2019-01-10T15:58:37.080Z,13.38
2019-01-10T16:01:17.098Z,18.50
2019-01-10T16:03:56.792Z,13.53
2019-01-10T16:06:36.915Z,13.70
2019-01-10T16:09:17.472Z,15.98
2019-01-10T16:11:57.681Z,13.35
2019-01-10T16:14:38.468Z,14.83
2019-01-10T16:17:06.635Z,17.95
2019-01-10T16:19:55.247Z,13.93
2019-01-10T16:22:36.967Z,14.80
2019-01-10T16:25:19.742Z,14.87
2019-01-10T16:28:01.244Z,19.77
2019-01-10T16:30:43.631Z,12.47
2019-01-10T16:33:23.114Z,19.27
2019-01-10T16:36:03.244Z,14.40
2019-01-10T16:38:43.109Z,11.73
2019-01-10T16:41:23.480Z,13.65
2019-01-10T16:44:04.375Z,18.37
2019-01-10T16:46:45.289Z,13.95
2019-01-10T16:49:26.355Z,13.15
2019-01-10T16:52:07.683Z,16.12
2019-01-10T16:54:48.883Z,15.75
2019-01-10T16:57:29.724Z,14.50
2019-01-10T17:00:16.842Z,15.68
2019-01-10T17:02:57.062Z,20.43
2019-01-10T17:05:37.167Z,12.58
2019-01-10T17:08:17.252Z,16.57
2019-01-10T17:10:57.055Z,16.20
2019-01-10T17:13:37.298Z,10.90
2019-01-10T17:16:18.661Z,16.70
2019-01-10T17:18:46.949Z,16.82
2019-01-10T17:21:36.234Z,30.00
2019-01-10T17:24:18.651Z,21.65
2019-01-10T17:26:48.363Z,35.88
2019-01-10T17:29:37.522Z,47.75
2019-01-10T17:32:19.174Z,49.83
2019-01-10T17:35:01.458Z,30.50
2019-01-10T17:37:41.466Z,29.05
2019-01-10T17:40:21.462Z,22.58
2019-01-10T17:43:02.275Z,21.12
2019-01-10T17:45:41.859Z,14.15
2019-01-10T17:48:22.706Z,18.30
2019-01-10T17:51:04.047Z,15.53
2019-01-10T17:53:45.195Z,13.08
2019-01-10T17:56:25.959Z,14.33
2019-01-10T17:59:07.072Z,19.67
2019-01-10T18:01:48.799Z,14.38
2019-01-10T18:04:29.371Z,17.65
2019-01-10T18:07:09.238Z,19.12
2019-01-10T18:09:49.395Z,18.10
2019-01-10T18:12:30.148Z,17.75
2019-01-10T18:15:11.458Z,16.70
2019-01-10T18:17:38.522Z,15.75
2019-01-10T18:20:27.251Z,19.15
2019-01-10T18:23:09.265Z,11.45
2019-01-10T18:25:52.707Z,19.42
2019-01-10T18:28:33.302Z,20.72
2019-01-10T18:31:14.856Z,15.25
2019-01-10T18:36:46.471Z,19.87
2019-01-10T18:39:37.179Z,14.87
2019-01-10T18:42:17.434Z,17.42
2019-01-10T18:44:57.552Z,19.85
2019-01-10T18:47:38.035Z,17.65
2019-01-10T18:50:17.859Z,13.70
2019-01-10T18:53:00.859Z,13.85
2019-01-10T18:55:30.435Z,19.02
2019-01-10T18:58:19.270Z,17.62
2019-01-10T19:01:01.169Z,15.23
2019-01-10T19:03:42.235Z,13.38
2019-01-10T19:06:23.094Z,20.15
2019-01-10T19:09:04.133Z,14.53
2019-01-10T19:11:44.329Z,15.18
2019-01-10T19:20:44.498Z,18.37
2019-01-10T19:23:26.406Z,16.62
2019-01-10T19:26:07.366Z,18.20
2019-01-10T19:31:32.225Z,13.43
2019-01-10T19:34:19.218Z,15.00
2019-01-10T19:36:59.845Z,17.20
2019-01-10T19:39:26.941Z,18.77
2019-01-10T19:42:13.615Z,23.10
2019-01-10T19:44:53.482Z,16.85
2019-01-10T19:47:35.124Z,12.95
2019-01-10T19:50:16.233Z,16.23
2019-01-10T19:52:57.209Z,18.95
2019-01-10T19:55:38.641Z,19.25
2019-01-10T19:58:19.681Z,17.02
2019-01-10T20:01:00.967Z,18.62
2019-01-10T20:03:29.261Z,24.02
2019-01-10T20:06:18.105Z,20.50
2019-01-10T20:08:58.349Z,14.13
2019-01-10T20:11:38.068Z,18.12
2019-01-10T20:14:18.898Z,13.95
2019-01-10T20:16:47.181Z,16.15
2019-01-10T20:19:34.959Z,19.48
2019-01-10T20:22:17.192Z,16.95
2019-01-10T20:24:59.903Z,14.20
2019-01-10T20:27:41.014Z,19.55
2019-01-10T20:30:21.991Z,17.37
2019-01-10T20:33:02.902Z,27.45
2019-01-10T20:35:44.706Z,20.62
2019-01-10T20:38:13.145Z,20.97
2019-01-10T20:41:02.278Z,18.32
2019-01-10T20:43:47.294Z,19.73
2019-01-10T20:46:15.562Z,17.95
2019-01-10T20:49:13.220Z,20.05
2019-01-10T20:57:52.084Z,20.35
2019-01-10T21:00:39.711Z,15.05
2019-01-10T21:03:07.726Z,15.45
2019-01-10T21:05:54.795Z,25.97
2019-01-10T21:08:34.450Z,30.60
2019-01-10T21:11:15.301Z,21.27
2019-01-10T21:13:56.379Z,24.40
2019-01-10T21:16:36.706Z,26.10
2019-01-10T21:19:18.050Z,20.50
2019-01-10T21:21:59.282Z,17.95
2019-01-10T21:24:40.330Z,23.70
2019-01-10T21:27:21.391Z,20.45
2019-01-10T21:30:02.444Z,20.88
2019-01-10T21:32:43.587Z,22.25
2019-01-10T21:35:25.819Z,45.20
2019-01-10T21:38:07.719Z,137.18
2019-01-10T21:40:47.692Z,56.30
2019-01-10T21:43:27.638Z,77.17
2019-01-10T21:46:08.078Z,26.48
2019-01-10T21:48:35.340Z,18.52
2019-01-10T21:51:22.246Z,18.60
2019-01-10T21:54:04.420Z,20.52
2019-01-10T21:56:45.719Z,23.22
2019-01-10T21:59:27.282Z,18.35
2019-01-10T22:02:08.585Z,19.37
2019-01-10T22:04:49.429Z,19.45
2019-01-10T22:07:30.461Z,18.70
2019-01-10T22:10:11.967Z,20.37
2019-01-10T22:12:56.026Z,15.98
2019-01-10T22:15:38.686Z,22.98
2019-01-10T22:18:19.065Z,20.77
2019-01-10T22:20:59.655Z,19.57
2019-01-10T22:23:40.416Z,15.98
2019-01-10T22:26:22.186Z,14.23
2019-01-10T22:29:02.601Z,15.65
2019-01-10T22:31:44.445Z,14.87
2019-01-10T22:34:25.375Z,18.98
2019-01-10T22:37:06.711Z,19.77
2019-01-10T22:39:47.944Z,16.77
2019-01-10T22:42:28.168Z,17.65
2019-01-10T22:44:58.109Z,16.50
2019-01-10T22:47:38.586Z,15.60
2019-01-10T22:50:20.455Z,17.70
2019-01-10T22:53:00.825Z,18.20
2019-01-10T22:58:22.531Z,17.10
2019-01-10T23:04:37.084Z,20.68
2019-01-10T23:07:17.247Z,18.20
2019-01-10T23:09:59.247Z,16.65
2019-01-10T23:12:41.231Z,21.65
2019-01-10T23:18:54.432Z,19.65
2019-01-10T23:21:35.605Z,17.80
2019-01-10T23:24:17.085Z,17.32
2019-01-10T23:26:58.816Z,17.55
2019-01-10T23:29:38.941Z,22.75
2019-01-10T23:32:19.615Z,17.60
2019-01-10T23:35:00.094Z,20.88
2019-01-10T23:37:40.326Z,21.30
2019-01-10T23:40:21.165Z,23.90
2019-01-10T23:43:02.532Z,18.95
2019-01-10T23:45:45.383Z,21.30
2019-01-10T23:48:26.281Z,20.57
2019-01-10T23:51:06.862Z,24.37
2019-01-10T23:53:46.431Z,27.13
2019-01-10T23:56:26.415Z,23.40
2019-01-10T23:59:06.814Z,22.32
